Time,TemperatureF,DewpointF,PressureIn,WindDirection,WindDirectionDegrees,WindSpeedMPH,WindSpeedGustMPH,Humidity,HourlyPrecipIn,Conditions,Clouds,dailyrainin,SoftwareType,DateUTC
2013-03-05 00:01:00,48.0,42.0,29.76,North,0,6.0,8.0,81,-99.99,,,-99.99,,2013-03-05 06:01:00,
2013-03-05 00:11:00,47.0,42.0,29.76,North,0,5.0,8.0,81,-99.99,,,-99.99,,2013-03-05 06:11:00,
2013-03-05 00:22:00,47.0,42.0,29.76,North,0,5.0,8.0,81,-99.99,,,-99.99,,2013-03-05 06:22:00,
2013-03-05 00:32:00,48.0,42.0,29.77,North,0,3.0,4.0,80,-99.99,,,-99.99,,2013-03-05 06:32:00,
2013-03-05 00:42:00,48.0,42.0,29.77,NNW,330,5.0,9.0,81,-99.99,,,-99.99,,2013-03-05 06:42:00,
2013-03-05 00:52:00,46.0,36.0,29.78,North,0,15.0,21.0,67,-99.99,,,-99.99,,2013-03-05 06:52:00,
2013-03-05 01:01:00,46.0,36.0,29.78,North,0,15.0,21.0,67,-99.99,,,-99.99,,2013-03-05 07:01:00,
2013-03-05 01:11:00,46.0,35.0,29.78,North,0,16.0,22.0,65,-99.99,,,-99.99,,2013-03-05 07:11:00,
2013-03-05 01:22:00,46.0,35.0,29.78,North,0,16.0,22.0,65,-99.99,,,-99.99,,2013-03-05 07:22:00,
2013-03-05 01:30:00,41.0,31.0,29.80,NNW,340,11.0,18.0,67,-99.99,,,-99.99,,2013-03-05 07:30:00,
2013-03-05 01:31:00,43.0,33.0,29.77,North,355,14.0,21.0,66,-99.99,,,-99.99,,2013-03-05 07:31:00,
2013-03-05 01:41:00,42.0,32.0,29.77,North,350,16.0,23.0,66,-99.99,,,-99.99,,2013-03-05 07:41:00,
2013-03-05 01:51:00,41.0,31.0,29.80,North,0,13.0,23.0,66,-99.99,,,-99.99,,2013-03-05 07:51:00,
2013-03-05 02:02:00,41.0,31.0,29.80,North,0,13.0,23.0,66,-99.99,,,-99.99,,2013-03-05 08:02:00,
2013-03-05 02:11:00,41.0,31.0,29.80,NNW,340,11.0,18.0,67,-99.99,,,-99.99,,2013-03-05 08:11:00,
2013-03-05 02:21:00,41.0,31.0,29.80,NNW,340,11.0,18.0,67,-99.99,,,-99.99,,2013-03-05 08:21:00,
2013-03-05 02:42:00,40.0,30.0,29.81,North,355,15.0,24.0,68,-99.99,,,-99.99,,2013-03-05 08:42:00,
2013-03-05 02:52:00,40.0,30.0,29.81,North,355,15.0,24.0,68,-99.99,,,-99.99,,2013-03-05 08:52:00,
2013-03-05 03:01:00,40.0,30.0,29.83,North,350,14.0,19.0,68,-99.99,,,-99.99,,2013-03-05 09:01:00,
2013-03-05 03:11:00,40.0,30.0,29.84,North,355,15.0,23.0,67,-99.99,,,-99.99,,2013-03-05 09:11:00,
2013-03-05 03:21:00,40.0,30.0,29.84,North,355,15.0,23.0,67,-99.99,,,-99.99,,2013-03-05 09:21:00,
2013-03-05 03:31:00,40.0,30.0,29.84,NNW,340,13.0,20.0,67,-99.99,,,-99.99,,2013-03-05 09:31:00,
2013-03-05 03:42:00,39.0,30.0,29.84,NNW,335,10.0,17.0,68,-99.99,,,-99.99,,2013-03-05 09:42:00,
2013-03-05 03:52:00,39.0,30.0,29.84,NNW,335,10.0,17.0,68,-99.99,,,-99.99,,2013-03-05 09:52:00,
2013-03-05 04:00:00,38.0,30.0,29.88,NNW,340,17.0,24.0,74,-99.99,,,-99.99,,2013-03-05 10:00:00,
2013-03-05 04:01:00,39.0,29.0,29.85,NNW,335,10.0,17.0,67,-99.99,,,-99.99,,2013-03-05 10:01:00,
2013-03-05 04:11:00,39.0,30.0,29.85,North,350,9.0,19.0,69,-99.99,,,-99.99,,2013-03-05 10:11:00,
2013-03-05 04:21:00,39.0,30.0,29.85,North,350,9.0,19.0,69,-99.99,,,-99.99,,2013-03-05 10:21:00,
2013-03-05 04:32:00,38.0,30.0,29.86,North,355,16.0,24.0,71,-99.99,,,-99.99,,2013-03-05 10:32:00,
2013-03-05 04:42:00,38.0,30.0,29.88,NNW,340,17.0,24.0,74,-99.99,,,-99.99,,2013-03-05 10:42:00,
2013-03-05 04:52:00,38.0,30.0,29.88,NNW,340,17.0,24.0,74,-99.99,,,-99.99,,2013-03-05 10:52:00,
2013-03-05 05:11:00,37.0,31.0,29.89,NNW,340,16.0,23.0,80,-99.99,,,-99.99,,2013-03-05 11:11:00,
2013-03-05 05:22:00,37.0,31.0,29.89,NNW,340,16.0,23.0,80,-99.99,,,-99.99,,2013-03-05 11:22:00,
2013-03-05 05:32:00,37.0,32.0,29.89,North,355,17.0,26.0,83,-99.99,,,-99.99,,2013-03-05 11:32:00,
2013-03-05 05:42:00,36.0,31.0,29.90,North,350,17.0,29.0,83,-99.99,,,-99.99,,2013-03-05 11:42:00,
2013-03-05 05:52:00,36.0,31.0,29.90,North,350,17.0,29.0,83,-99.99,,,-99.99,,2013-03-05 11:52:00,
2013-03-05 06:02:00,36.0,32.0,29.91,NNW,345,19.0,26.0,85,-99.99,,,-99.99,,2013-03-05 12:02:00,
2013-03-05 06:12:00,36.0,32.0,29.92,North,355,22.0,28.0,85,-99.99,,,-99.99,,2013-03-05 12:12:00,
2013-03-05 06:22:00,36.0,32.0,29.92,North,355,22.0,28.0,85,-99.99,,,-99.99,,2013-03-05 12:22:00,
2013-03-05 06:32:00,36.0,31.0,29.92,North,350,17.0,26.0,84,-99.99,,,-99.99,,2013-03-05 12:32:00,
2013-03-05 06:42:00,36.0,32.0,29.93,North,355,15.0,27.0,85,-99.99,,,-99.99,,2013-03-05 12:42:00,
2013-03-05 06:52:00,36.0,32.0,29.93,North,355,15.0,27.0,85,-99.99,,,-99.99,,2013-03-05 12:52:00,
2013-03-05 07:02:00,36.0,32.0,29.92,North,355,18.0,31.0,84,-99.99,,,-99.99,,2013-03-05 13:02:00,
2013-03-05 07:11:00,36.0,31.0,29.94,NNW,345,19.0,31.0,83,-99.99,,,-99.99,,2013-03-05 13:11:00,
2013-03-05 07:21:00,36.0,31.0,29.94,NNW,345,19.0,31.0,83,-99.99,,,-99.99,,2013-03-05 13:21:00,
2013-03-05 07:32:00,35.0,30.0,29.94,NNW,340,21.0,30.0,83,-99.99,,,-99.99,,2013-03-05 13:32:00,
2013-03-05 07:42:00,35.0,30.0,29.93,North,0,16.0,26.0,83,-99.99,,,-99.99,,2013-03-05 13:42:00,
2013-03-05 07:52:00,35.0,30.0,29.93,North,0,16.0,26.0,83,-99.99,,,-99.99,,2013-03-05 13:52:00,
2013-03-05 08:02:00,35.0,29.0,29.95,North,350,17.0,30.0,80,-99.99,,,-99.99,,2013-03-05 14:02:00,
2013-03-05 08:11:00,35.0,29.0,29.95,North,355,17.0,28.0,77,-99.99,,,-99.99,,2013-03-05 14:11:00,
2013-03-05 08:21:00,35.0,29.0,29.95,North,355,17.0,28.0,77,-99.99,,,-99.99,,2013-03-05 14:21:00,
2013-03-05 08:32:00,35.0,28.0,29.95,NNW,340,15.0,28.0,75,-99.99,,,-99.99,,2013-03-05 14:32:00,
2013-03-05 08:42:00,36.0,28.0,29.96,NW,325,15.0,28.0,75,-99.99,,,-99.99,,2013-03-05 14:42:00,
2013-03-05 08:52:00,36.0,28.0,29.96,NW,325,15.0,28.0,75,-99.99,,,-99.99,,2013-03-05 14:52:00,
2013-03-05 09:01:00,35.0,28.0,29.98,NNW,340,15.0,29.0,75,-99.99,,,-99.99,,2013-03-05 15:01:00,
2013-03-05 09:11:00,36.0,28.0,29.98,NNW,345,15.0,24.0,72,-99.99,,,-99.99,,2013-03-05 15:11:00,
2013-03-05 09:21:00,36.0,28.0,29.98,NNW,345,15.0,24.0,72,-99.99,,,-99.99,,2013-03-05 15:21:00,
2013-03-05 09:32:00,37.0,27.0,29.99,NW,325,16.0,25.0,68,-99.99,,,-99.99,,2013-03-05 15:32:00,
2013-03-05 09:42:00,36.0,26.0,29.99,NW,325,17.0,30.0,66,-99.99,,,-99.99,,2013-03-05 15:42:00,
2013-03-05 09:52:00,36.0,26.0,29.99,NW,325,17.0,30.0,66,-99.99,,,-99.99,,2013-03-05 15:52:00,
2013-03-05 10:01:00,36.0,26.0,29.99,NNW,330,15.0,32.0,68,-99.99,,,-99.99,,2013-03-05 16:01:00,
2013-03-05 10:11:00,35.0,25.0,29.99,NW,325,16.0,26.0,67,-99.99,,,-99.99,,2013-03-05 16:11:00,
2013-03-05 10:21:00,35.0,25.0,29.99,NW,325,16.0,26.0,67,-99.99,,,-99.99,,2013-03-05 16:21:00,
2013-03-05 10:32:00,35.0,24.0,29.99,NW,325,15.0,25.0,65,-99.99,,,-99.99,,2013-03-05 16:32:00,
2013-03-05 10:42:00,35.0,24.0,30.00,NNW,345,17.0,30.0,64,-99.99,,,-99.99,,2013-03-05 16:42:00,
2013-03-05 10:51:00,35.0,24.0,30.00,NNW,345,17.0,30.0,64,-99.99,,,-99.99,,2013-03-05 16:51:00,
2013-03-05 11:01:00,34.0,20.0,30.01,NNW,340,18.0,33.0,55,-99.99,,,-99.99,,2013-03-05 17:01:00,
2013-03-05 11:11:00,35.0,21.0,30.02,NNW,340,18.0,31.0,56,-99.99,,,-99.99,,2013-03-05 17:11:00,
2013-03-05 11:20:00,37.0,19.0,30.03,NW,320,21.0,32.0,48,-99.99,,,-99.99,,2013-03-05 17:20:00,
2013-03-05 11:21:00,35.0,21.0,30.02,NNW,340,18.0,31.0,56,-99.99,,,-99.99,,2013-03-05 17:21:00,
2013-03-05 11:32:00,35.0,18.0,30.02,North,350,26.0,36.0,51,-99.99,,,-99.99,,2013-03-05 17:32:00,
2013-03-05 11:42:00,35.0,19.0,30.02,North,350,17.0,31.0,51,-99.99,,,-99.99,,2013-03-05 17:42:00,
2013-03-05 11:52:00,35.0,19.0,30.02,North,350,17.0,31.0,51,-99.99,,,-99.99,,2013-03-05 17:52:00,
2013-03-05 12:02:00,37.0,19.0,30.03,NW,320,21.0,32.0,48,-99.99,,,-99.99,,2013-03-05 18:02:00,
2013-03-05 12:11:00,37.0,19.0,30.03,NW,320,21.0,32.0,48,-99.99,,,-99.99,,2013-03-05 18:11:00,
2013-03-05 12:32:00,38.0,20.0,30.03,NNW,335,16.0,32.0,49,-99.99,,,-99.99,,2013-03-05 18:32:00,
2013-03-05 12:42:00,38.0,19.0,30.03,NW,320,20.0,28.0,46,-99.99,,,-99.99,,2013-03-05 18:42:00,
2013-03-05 12:52:00,38.0,19.0,30.03,NW,320,20.0,28.0,46,-99.99,,,-99.99,,2013-03-05 18:52:00,
2013-03-05 13:01:00,38.0,20.0,30.04,NW,315,17.0,33.0,47,-99.99,,,-99.99,,2013-03-05 19:01:00,
2013-03-05 13:11:00,38.0,19.0,30.04,NW,310,22.0,33.0,46,-99.99,,,-99.99,,2013-03-05 19:11:00,
2013-03-05 13:21:00,38.0,19.0,30.04,NW,310,22.0,33.0,46,-99.99,,,-99.99,,2013-03-05 19:21:00,
2013-03-05 13:32:00,38.0,19.0,30.04,North,350,19.0,35.0,47,-99.99,,,-99.99,,2013-03-05 19:32:00,
2013-03-05 13:42:00,39.0,21.0,30.04,NW,315,17.0,34.0,48,-99.99,,,-99.99,,2013-03-05 19:42:00,
2013-03-05 13:52:00,39.0,21.0,30.04,NW,315,17.0,34.0,48,-99.99,,,-99.99,,2013-03-05 19:52:00,
2013-03-05 14:01:00,38.0,19.0,30.04,NNW,335,21.0,35.0,46,-99.99,,,-99.99,,2013-03-05 20:01:00,
2013-03-05 14:11:00,38.0,19.0,30.04,NNW,335,20.0,35.0,47,-99.99,,,-99.99,,2013-03-05 20:11:00,
2013-03-05 14:21:00,38.0,19.0,30.04,NNW,335,20.0,35.0,47,-99.99,,,-99.99,,2013-03-05 20:21:00,
2013-03-05 14:32:00,38.0,20.0,30.04,NW,320,23.0,35.0,48,-99.99,,,-99.99,,2013-03-05 20:32:00,
2013-03-05 14:42:00,38.0,21.0,30.05,NW,320,21.0,34.0,49,-99.99,,,-99.99,,2013-03-05 20:42:00,
2013-03-05 14:52:00,38.0,21.0,30.05,NW,320,21.0,34.0,49,-99.99,,,-99.99,,2013-03-05 20:52:00,
2013-03-05 15:02:00,37.0,20.0,30.06,NNW,330,20.0,37.0,48,-99.99,,,-99.99,,2013-03-05 21:02:00,
2013-03-05 15:11:00,38.0,20.0,30.06,NW,320,19.0,34.0,47,-99.99,,,-99.99,,2013-03-05 21:11:00,
2013-03-05 15:21:00,38.0,20.0,30.06,NW,320,19.0,34.0,47,-99.99,,,-99.99,,2013-03-05 21:21:00,
2013-03-05 15:32:00,38.0,21.0,30.07,NW,325,22.0,35.0,49,-99.99,,,-99.99,,2013-03-05 21:32:00,
2013-03-05 15:42:00,38.0,21.0,30.07,NNW,335,20.0,34.0,49,-99.99,,,-99.99,,2013-03-05 21:42:00,
2013-03-05 15:52:00,38.0,21.0,30.07,NNW,335,20.0,34.0,49,-99.99,,,-99.99,,2013-03-05 21:52:00,
2013-03-05 16:01:00,36.0,19.0,30.08,NNW,340,23.0,40.0,50,-99.99,,,-99.99,,2013-03-05 22:01:00,
2013-03-05 16:11:00,38.0,21.0,30.08,NNW,330,18.0,34.0,50,-99.99,,,-99.99,,2013-03-05 22:11:00,
2013-03-05 16:22:00,38.0,21.0,30.08,NNW,330,18.0,34.0,50,-99.99,,,-99.99,,2013-03-05 22:22:00,
2013-03-05 16:32:00,37.0,20.0,30.08,NNW,340,15.0,29.0,50,-99.99,,,-99.99,,2013-03-05 22:32:00,
2013-03-05 16:42:00,38.0,21.0,30.08,NNW,345,17.0,34.0,50,-99.99,,,-99.99,,2013-03-05 22:42:00,
2013-03-05 16:52:00,38.0,21.0,30.08,NNW,345,17.0,34.0,50,-99.99,,,-99.99,,2013-03-05 22:52:00,
2013-03-05 17:01:00,37.0,20.0,30.09,NNW,340,17.0,33.0,49,-99.99,,,-99.99,,2013-03-05 23:01:00,
2013-03-05 17:11:00,37.0,19.0,30.09,NNW,340,16.0,31.0,49,-99.99,,,-99.99,,2013-03-05 23:11:00,
2013-03-05 17:21:00,37.0,19.0,30.09,NNW,340,16.0,31.0,49,-99.99,,,-99.99,,2013-03-05 23:21:00,
2013-03-05 17:32:00,37.0,20.0,30.09,NW,325,22.0,37.0,49,-99.99,,,-99.99,,2013-03-05 23:32:00,
2013-03-05 17:42:00,37.0,20.0,30.10,NNW,335,16.0,31.0,50,-99.99,,,-99.99,,2013-03-05 23:42:00,
2013-03-05 17:52:00,37.0,20.0,30.09,NNW,340,13.0,31.0,51,-99.99,,,-99.99,,2013-03-05 23:52:00,
2013-03-05 18:01:00,37.0,20.0,30.09,NNW,340,13.0,31.0,51,-99.99,,,-99.99,,2013-03-06 00:01:00,
2013-03-05 18:11:00,36.0,20.0,30.11,NNW,330,18.0,29.0,50,-99.99,,,-99.99,,2013-03-06 00:11:00,
2013-03-05 18:21:00,36.0,20.0,30.11,NNW,330,18.0,29.0,50,-99.99,,,-99.99,,2013-03-06 00:21:00,
2013-03-05 18:32:00,36.0,20.0,30.11,NNW,345,17.0,32.0,52,-99.99,,,-99.99,,2013-03-06 00:32:00,
2013-03-05 18:42:00,36.0,21.0,30.11,NW,325,18.0,30.0,53,-99.99,,,-99.99,,2013-03-06 00:42:00,
2013-03-05 18:52:00,36.0,21.0,30.11,NW,325,18.0,30.0,53,-99.99,,,-99.99,,2013-03-06 00:52:00,
2013-03-05 19:02:00,36.0,20.0,30.12,NNW,340,18.0,28.0,52,-99.99,,,-99.99,,2013-03-06 01:02:00,
2013-03-05 19:11:00,36.0,20.0,30.12,NNW,330,18.0,30.0,51,-99.99,,,-99.99,,2013-03-06 01:11:00,
2013-03-05 19:21:00,36.0,20.0,30.12,NNW,330,18.0,30.0,51,-99.99,,,-99.99,,2013-03-06 01:21:00,
2013-03-05 19:32:00,36.0,19.0,30.13,North,0,18.0,26.0,51,-99.99,,,-99.99,,2013-03-06 01:32:00,
2013-03-05 19:42:00,35.0,19.0,30.12,NNW,335,17.0,33.0,51,-99.99,,,-99.99,,2013-03-06 01:42:00,
2013-03-05 19:51:00,35.0,19.0,30.13,NNW,345,19.0,31.0,52,-99.99,,,-99.99,,2013-03-06 01:51:00,
2013-03-05 20:01:00,35.0,19.0,30.13,NNW,345,19.0,31.0,52,-99.99,,,-99.99,,2013-03-06 02:01:00,
2013-03-05 20:11:00,35.0,19.0,30.14,North,350,19.0,31.0,53,-99.99,,,-99.99,,2013-03-06 02:11:00,
2013-03-05 20:22:00,35.0,19.0,30.14,North,350,19.0,31.0,53,-99.99,,,-99.99,,2013-03-06 02:22:00,
2013-03-05 20:32:00,34.0,20.0,30.14,NNW,335,13.0,30.0,55,-99.99,,,-99.99,,2013-03-06 02:32:00,
2013-03-05 20:42:00,34.0,19.0,30.15,NNW,345,19.0,27.0,54,-99.99,,,-99.99,,2013-03-06 02:42:00,
2013-03-05 20:52:00,34.0,19.0,30.15,NNW,345,19.0,27.0,54,-99.99,,,-99.99,,2013-03-06 02:52:00,
2013-03-05 21:02:00,34.0,19.0,30.15,NW,325,19.0,29.0,54,-99.99,,,-99.99,,2013-03-06 03:02:00,
2013-03-05 21:11:00,34.0,18.0,30.15,North,350,23.0,33.0,53,-99.99,,,-99.99,,2013-03-06 03:11:00,
2013-03-05 21:22:00,34.0,18.0,30.15,North,350,23.0,33.0,53,-99.99,,,-99.99,,2013-03-06 03:22:00,
2013-03-05 21:32:00,34.0,20.0,30.15,NNW,345,14.0,27.0,56,-99.99,,,-99.99,,2013-03-06 03:32:00,
2013-03-05 21:42:00,34.0,20.0,30.16,NNW,335,14.0,25.0,56,-99.99,,,-99.99,,2013-03-06 03:42:00,
2013-03-05 21:52:00,34.0,20.0,30.16,NNW,335,14.0,25.0,56,-99.99,,,-99.99,,2013-03-06 03:52:00,
2013-03-05 22:02:00,34.0,19.0,30.17,NNW,330,17.0,27.0,55,-99.99,,,-99.99,,2013-03-06 04:02:00,
2013-03-05 22:11:00,34.0,20.0,30.17,North,350,14.0,27.0,56,-99.99,,,-99.99,,2013-03-06 04:11:00,
2013-03-05 22:21:00,34.0,20.0,30.17,North,350,14.0,27.0,56,-99.99,,,-99.99,,2013-03-06 04:21:00,
2013-03-05 22:32:00,34.0,20.0,30.17,NNW,345,14.0,24.0,56,-99.99,,,-99.99,,2013-03-06 04:32:00,
2013-03-05 22:42:00,33.0,20.0,30.18,North,355,15.0,30.0,57,-99.99,,,-99.99,,2013-03-06 04:42:00,
2013-03-05 22:52:00,33.0,20.0,30.18,North,355,15.0,30.0,57,-99.99,,,-99.99,,2013-03-06 04:52:00,
2013-03-05 23:02:00,33.0,20.0,30.18,North,350,19.0,25.0,58,-99.99,,,-99.99,,2013-03-06 05:02:00,
2013-03-05 23:11:00,33.0,20.0,30.19,North,0,15.0,27.0,59,-99.99,,,-99.99,,2013-03-06 05:11:00,
2013-03-05 23:22:00,33.0,20.0,30.19,North,0,15.0,27.0,59,-99.99,,,-99.99,,2013-03-06 05:22:00,
2013-03-05 23:32:00,32.0,19.0,30.19,North,0,20.0,27.0,59,-99.99,,,-99.99,,2013-03-06 05:32:00,
2013-03-05 23:42:00,32.0,20.0,30.19,North,0,19.0,26.0,60,-99.99,,,-99.99,,2013-03-06 05:42:00,
2013-03-05 23:52:00,31.0,18.0,30.19,North,355,14.0,30.0,58,-99.99,,,-99.99,,2013-03-06 05:52:00,